sensor_id;sensor_type;location;lat;lon;timestamp;P1;durP1;ratioP1;P2;durP2;ratioP2
12445;SDS011;6287;50.984;7.022;2024-01-30T00:00:31;6.20;;;5.60;;
12445;SDS011;6287;50.984;7.022;2024-01-30T00:02:58;6.63;;;5.23;;
12445;SDS011;6287;50.984;7.022;2024-01-30T00:05:26;7.03;;;5.50;;
12445;SDS011;6287;50.984;7.022;2024-01-30T00:07:54;9.00;;;6.17;;
12445;SDS011;6287;50.984;7.022;2024-01-30T00:10:20;7.90;;;5.27;;
12445;SDS011;6287;50.984;7.022;2024-01-30T00:12:46;7.70;;;6.00;;
12445;SDS011;6287;50.984;7.022;2024-01-30T00:15:12;6.40;;;4.90;;
12445;SDS011;6287;50.984;7.022;2024-01-30T00:17:38;10.27;;;6.00;;
12445;SDS011;6287;50.984;7.022;2024-01-30T00:20:03;8.57;;;5.80;;
12445;SDS011;6287;50.984;7.022;2024-01-30T00:22:34;8.37;;;5.67;;
12445;SDS011;6287;50.984;7.022;2024-01-30T00:24:59;8.17;;;4.93;;
12445;SDS011;6287;50.984;7.022;2024-01-30T00:27:25;10.07;;;5.50;;
12445;SDS011;6287;50.984;7.022;2024-01-30T00:29:57;7.50;;;5.63;;
12445;SDS011;6287;50.984;7.022;2024-01-30T00:32:22;7.43;;;5.90;;
12445;SDS011;6287;50.984;7.022;2024-01-30T00:34:48;9.80;;;5.67;;
12445;SDS011;6287;50.984;7.022;2024-01-30T00:37:14;8.63;;;5.60;;
12445;SDS011;6287;50.984;7.022;2024-01-30T00:39:42;9.87;;;6.20;;
12445;SDS011;6287;50.984;7.022;2024-01-30T00:42:07;11.57;;;6.53;;
12445;SDS011;6287;50.984;7.022;2024-01-30T00:44:36;11.03;;;5.83;;
12445;SDS011;6287;50.984;7.022;2024-01-30T00:47:04;12.17;;;6.53;;
12445;SDS011;6287;50.984;7.022;2024-01-30T00:49:33;11.17;;;5.97;;
12445;SDS011;6287;50.984;7.022;2024-01-30T00:51:59;11.17;;;6.53;;
12445;SDS011;6287;50.984;7.022;2024-01-30T00:54:25;8.20;;;5.07;;
12445;SDS011;6287;50.984;7.022;2024-01-30T00:56:53;9.27;;;5.63;;
12445;SDS011;6287;50.984;7.022;2024-01-30T00:59:19;6.67;;;5.10;;
12445;SDS011;6287;50.984;7.022;2024-01-30T01:01:49;6.47;;;5.10;;
12445;SDS011;6287;50.984;7.022;2024-01-30T01:04:17;9.57;;;5.90;;
12445;SDS011;6287;50.984;7.022;2024-01-30T01:06:43;10.30;;;5.90;;
12445;SDS011;6287;50.984;7.022;2024-01-30T01:09:09;5.87;;;5.17;;
12445;SDS011;6287;50.984;7.022;2024-01-30T01:11:38;8.17;;;5.30;;
12445;SDS011;6287;50.984;7.022;2024-01-30T01:14:04;7.07;;;4.90;;
12445;SDS011;6287;50.984;7.022;2024-01-30T01:16:35;7.20;;;5.47;;
12445;SDS011;6287;50.984;7.022;2024-01-30T01:19:00;8.87;;;5.83;;
12445;SDS011;6287;50.984;7.022;2024-01-30T01:21:26;7.10;;;5.00;;
12445;SDS011;6287;50.984;7.022;2024-01-30T01:23:52;8.53;;;5.70;;
12445;SDS011;6287;50.984;7.022;2024-01-30T01:26:20;6.53;;;5.10;;
12445;SDS011;6287;50.984;7.022;2024-01-30T01:28:46;8.53;;;5.57;;
12445;SDS011;6287;50.984;7.022;2024-01-30T01:31:15;8.70;;;5.50;;
12445;SDS011;6287;50.984;7.022;2024-01-30T01:33:44;7.50;;;5.50;;
12445;SDS011;6287;50.984;7.022;2024-01-30T01:36:13;8.37;;;5.47;;
12445;SDS011;6287;50.984;7.022;2024-01-30T01:38:41;8.33;;;5.07;;
12445;SDS011;6287;50.984;7.022;2024-01-30T01:41:09;7.00;;;5.40;;
12445;SDS011;6287;50.984;7.022;2024-01-30T01:43:42;8.47;;;5.97;;
12445;SDS011;6287;50.984;7.022;2024-01-30T01:46:08;8.77;;;5.30;;
12445;SDS011;6287;50.984;7.022;2024-01-30T01:48:34;10.37;;;5.83;;
12445;SDS011;6287;50.984;7.022;2024-01-30T01:51:03;10.30;;;5.80;;
12445;SDS011;6287;50.984;7.022;2024-01-30T01:53:29;12.23;;;6.00;;
12445;SDS011;6287;50.984;7.022;2024-01-30T01:55:55;7.10;;;5.77;;
12445;SDS011;6287;50.984;7.022;2024-01-30T01:58:26;8.53;;;5.47;;
12445;SDS011;6287;50.984;7.022;2024-01-30T02:00:56;9.20;;;6.10;;
12445;SDS011;6287;50.984;7.022;2024-01-30T02:03:24;7.03;;;5.30;;
12445;SDS011;6287;50.984;7.022;2024-01-30T02:05:51;8.70;;;6.20;;
12445;SDS011;6287;50.984;7.022;2024-01-30T02:08:22;7.50;;;5.47;;
12445;SDS011;6287;50.984;7.022;2024-01-30T02:10:51;10.23;;;6.07;;
12445;SDS011;6287;50.984;7.022;2024-01-30T02:13:21;8.53;;;5.60;;
12445;SDS011;6287;50.984;7.022;2024-01-30T02:15:51;6.97;;;5.47;;
12445;SDS011;6287;50.984;7.022;2024-01-30T02:18:16;6.93;;;5.30;;
12445;SDS011;6287;50.984;7.022;2024-01-30T02:20:42;8.47;;;5.50;;
12445;SDS011;6287;50.984;7.022;2024-01-30T02:23:09;6.33;;;5.17;;
12445;SDS011;6287;50.984;7.022;2024-01-30T02:25:39;7.80;;;5.60;;
12445;SDS011;6287;50.984;7.022;2024-01-30T02:28:10;7.67;;;5.10;;
12445;SDS011;6287;50.984;7.022;2024-01-30T02:30:42;8.50;;;4.80;;
12445;SDS011;6287;50.984;7.022;2024-01-30T02:33:11;6.40;;;5.10;;
12445;SDS011;6287;50.984;7.022;2024-01-30T02:35:39;8.10;;;4.93;;
12445;SDS011;6287;50.984;7.022;2024-01-30T02:38:05;6.73;;;4.80;;
12445;SDS011;6287;50.984;7.022;2024-01-30T02:40:31;8.00;;;5.10;;
12445;SDS011;6287;50.984;7.022;2024-01-30T02:42:58;7.23;;;4.70;;
12445;SDS011;6287;50.984;7.022;2024-01-30T02:45:29;6.53;;;5.03;;
12445;SDS011;6287;50.984;7.022;2024-01-30T02:47:57;6.17;;;5.03;;
12445;SDS011;6287;50.984;7.022;2024-01-30T02:50:22;6.10;;;4.63;;
12445;SDS011;6287;50.984;7.022;2024-01-30T02:52:48;8.33;;;5.33;;
12445;SDS011;6287;50.984;7.022;2024-01-30T02:55:18;6.73;;;4.50;;
12445;SDS011;6287;50.984;7.022;2024-01-30T02:57:46;5.93;;;4.73;;
12445;SDS011;6287;50.984;7.022;2024-01-30T03:00:12;6.73;;;5.17;;
12445;SDS011;6287;50.984;7.022;2024-01-30T03:02:40;6.80;;;4.60;;
12445;SDS011;6287;50.984;7.022;2024-01-30T03:05:06;7.47;;;4.77;;
12445;SDS011;6287;50.984;7.022;2024-01-30T03:07:33;6.77;;;4.97;;
12445;SDS011;6287;50.984;7.022;2024-01-30T03:10:01;7.93;;;4.90;;
12445;SDS011;6287;50.984;7.022;2024-01-30T03:12:27;9.33;;;5.33;;
12445;SDS011;6287;50.984;7.022;2024-01-30T03:14:55;6.93;;;4.53;;
12445;SDS011;6287;50.984;7.022;2024-01-30T03:17:21;7.90;;;5.37;;
12445;SDS011;6287;50.984;7.022;2024-01-30T03:19:49;5.67;;;4.43;;
12445;SDS011;6287;50.984;7.022;2024-01-30T03:22:17;9.40;;;4.53;;
12445;SDS011;6287;50.984;7.022;2024-01-30T03:24:43;9.17;;;5.10;;
12445;SDS011;6287;50.984;7.022;2024-01-30T03:27:09;7.43;;;5.10;;
12445;SDS011;6287;50.984;7.022;2024-01-30T03:29:40;7.23;;;4.80;;
12445;SDS011;6287;50.984;7.022;2024-01-30T03:32:05;4.73;;;4.30;;
12445;SDS011;6287;50.984;7.022;2024-01-30T03:34:33;6.10;;;4.60;;
12445;SDS011;6287;50.984;7.022;2024-01-30T03:36:59;7.97;;;4.87;;
12445;SDS011;6287;50.984;7.022;2024-01-30T03:39:27;5.97;;;4.53;;
12445;SDS011;6287;50.984;7.022;2024-01-30T03:41:53;6.60;;;4.47;;
12445;SDS011;6287;50.984;7.022;2024-01-30T03:44:21;6.67;;;4.77;;
12445;SDS011;6287;50.984;7.022;2024-01-30T03:46:49;5.80;;;4.67;;
12445;SDS011;6287;50.984;7.022;2024-01-30T03:49:17;7.23;;;4.57;;
12445;SDS011;6287;50.984;7.022;2024-01-30T03:51:45;5.83;;;4.63;;
12445;SDS011;6287;50.984;7.022;2024-01-30T03:54:12;6.73;;;5.00;;
12445;SDS011;6287;50.984;7.022;2024-01-30T03:56:41;7.73;;;5.13;;
12445;SDS011;6287;50.984;7.022;2024-01-30T03:59:08;6.37;;;4.80;;
12445;SDS011;6287;50.984;7.022;2024-01-30T04:01:36;7.37;;;4.57;;
12445;SDS011;6287;50.984;7.022;2024-01-30T04:04:02;5.90;;;5.00;;
12445;SDS011;6287;50.984;7.022;2024-01-30T04:06:30;6.90;;;4.73;;
12445;SDS011;6287;50.984;7.022;2024-01-30T04:08:56;8.10;;;5.20;;
12445;SDS011;6287;50.984;7.022;2024-01-30T04:11:22;5.70;;;4.50;;
12445;SDS011;6287;50.984;7.022;2024-01-30T04:13:47;7.33;;;5.03;;
12445;SDS011;6287;50.984;7.022;2024-01-30T04:16:20;8.47;;;5.33;;
12445;SDS011;6287;50.984;7.022;2024-01-30T04:18:48;5.83;;;4.83;;
12445;SDS011;6287;50.984;7.022;2024-01-30T04:21:17;5.17;;;4.67;;
12445;SDS011;6287;50.984;7.022;2024-01-30T04:23:45;6.60;;;4.83;;
12445;SDS011;6287;50.984;7.022;2024-01-30T04:26:13;6.17;;;4.70;;
12445;SDS011;6287;50.984;7.022;2024-01-30T04:28:41;6.90;;;5.13;;
12445;SDS011;6287;50.984;7.022;2024-01-30T04:31:09;6.50;;;4.73;;
12445;SDS011;6287;50.984;7.022;2024-01-30T04:33:38;6.63;;;5.23;;
12445;SDS011;6287;50.984;7.022;2024-01-30T04:36:07;6.83;;;4.53;;
12445;SDS011;6287;50.984;7.022;2024-01-30T04:38:35;5.73;;;4.77;;
12445;SDS011;6287;50.984;7.022;2024-01-30T04:41:01;7.23;;;5.03;;
12445;SDS011;6287;50.984;7.022;2024-01-30T04:43:27;8.40;;;5.60;;
12445;SDS011;6287;50.984;7.022;2024-01-30T04:45:53;6.43;;;5.20;;
12445;SDS011;6287;50.984;7.022;2024-01-30T04:48:18;8.97;;;5.43;;
12445;SDS011;6287;50.984;7.022;2024-01-30T04:50:44;8.30;;;5.77;;
12445;SDS011;6287;50.984;7.022;2024-01-30T04:53:09;7.13;;;5.20;;
12445;SDS011;6287;50.984;7.022;2024-01-30T04:55:39;9.73;;;5.63;;
12445;SDS011;6287;50.984;7.022;2024-01-30T04:58:06;8.47;;;5.43;;
12445;SDS011;6287;50.984;7.022;2024-01-30T05:00:31;7.17;;;5.00;;
12445;SDS011;6287;50.984;7.022;2024-01-30T05:02:57;8.63;;;5.50;;
12445;SDS011;6287;50.984;7.022;2024-01-30T05:05:27;8.20;;;5.37;;
12445;SDS011;6287;50.984;7.022;2024-01-30T05:07:53;9.93;;;5.97;;
12445;SDS011;6287;50.984;7.022;2024-01-30T05:10:23;6.67;;;4.97;;
12445;SDS011;6287;50.984;7.022;2024-01-30T05:12:49;6.97;;;5.70;;
12445;SDS011;6287;50.984;7.022;2024-01-30T05:15:14;9.20;;;5.00;;
12445;SDS011;6287;50.984;7.022;2024-01-30T05:17:44;7.00;;;4.80;;
12445;SDS011;6287;50.984;7.022;2024-01-30T05:20:12;6.67;;;5.53;;
12445;SDS011;6287;50.984;7.022;2024-01-30T05:22:40;6.40;;;5.00;;
12445;SDS011;6287;50.984;7.022;2024-01-30T05:25:10;6.43;;;4.73;;
12445;SDS011;6287;50.984;7.022;2024-01-30T05:27:37;7.33;;;5.17;;
12445;SDS011;6287;50.984;7.022;2024-01-30T05:30:07;7.00;;;5.33;;
12445;SDS011;6287;50.984;7.022;2024-01-30T05:32:33;6.07;;;4.80;;
12445;SDS011;6287;50.984;7.022;2024-01-30T05:35:01;5.73;;;5.03;;
12445;SDS011;6287;50.984;7.022;2024-01-30T05:37:31;7.87;;;5.07;;
12445;SDS011;6287;50.984;7.022;2024-01-30T05:39:59;5.80;;;5.10;;
12445;SDS011;6287;50.984;7.022;2024-01-30T05:42:25;6.23;;;4.70;;
12445;SDS011;6287;50.984;7.022;2024-01-30T05:44:51;6.17;;;4.83;;
12445;SDS011;6287;50.984;7.022;2024-01-30T05:47:19;7.10;;;5.10;;
12445;SDS011;6287;50.984;7.022;2024-01-30T05:49:45;8.80;;;5.57;;
12445;SDS011;6287;50.984;7.022;2024-01-30T05:52:11;8.50;;;5.20;;
12445;SDS011;6287;50.984;7.022;2024-01-30T05:54:36;7.20;;;5.00;;
12445;SDS011;6287;50.984;7.022;2024-01-30T05:57:02;7.60;;;4.97;;
12445;SDS011;6287;50.984;7.022;2024-01-30T05:59:28;8.10;;;5.33;;
12445;SDS011;6287;50.984;7.022;2024-01-30T06:01:58;7.80;;;4.90;;
12445;SDS011;6287;50.984;7.022;2024-01-30T06:04:26;6.23;;;4.57;;
12445;SDS011;6287;50.984;7.022;2024-01-30T06:06:52;7.10;;;5.23;;
12445;SDS011;6287;50.984;7.022;2024-01-30T06:09:17;9.43;;;5.20;;
12445;SDS011;6287;50.984;7.022;2024-01-30T06:11:43;9.17;;;5.63;;
12445;SDS011;6287;50.984;7.022;2024-01-30T06:14:10;7.97;;;5.17;;
12445;SDS011;6287;50.984;7.022;2024-01-30T06:16:38;7.90;;;5.53;;
12445;SDS011;6287;50.984;7.022;2024-01-30T06:19:06;9.10;;;5.40;;
12445;SDS011;6287;50.984;7.022;2024-01-30T06:21:32;7.37;;;5.30;;
12445;SDS011;6287;50.984;7.022;2024-01-30T06:24:01;7.70;;;5.20;;
12445;SDS011;6287;50.984;7.022;2024-01-30T06:26:27;5.70;;;4.37;;
12445;SDS011;6287;50.984;7.022;2024-01-30T06:28:55;7.17;;;5.07;;
12445;SDS011;6287;50.984;7.022;2024-01-30T06:31:21;7.13;;;5.40;;
12445;SDS011;6287;50.984;7.022;2024-01-30T06:33:49;7.70;;;5.27;;
12445;SDS011;6287;50.984;7.022;2024-01-30T06:36:18;6.43;;;4.63;;
12445;SDS011;6287;50.984;7.022;2024-01-30T06:38:43;9.33;;;5.47;;
12445;SDS011;6287;50.984;7.022;2024-01-30T06:41:11;6.20;;;4.80;;
12445;SDS011;6287;50.984;7.022;2024-01-30T06:43:40;7.97;;;5.73;;
12445;SDS011;6287;50.984;7.022;2024-01-30T06:46:08;7.60;;;4.80;;
12445;SDS011;6287;50.984;7.022;2024-01-30T06:48:33;5.67;;;4.63;;
12445;SDS011;6287;50.984;7.022;2024-01-30T06:51:02;6.27;;;4.77;;
12445;SDS011;6287;50.984;7.022;2024-01-30T06:53:27;6.93;;;4.90;;
12445;SDS011;6287;50.984;7.022;2024-01-30T06:55:53;6.20;;;4.67;;
12445;SDS011;6287;50.984;7.022;2024-01-30T06:58:21;7.87;;;4.90;;
12445;SDS011;6287;50.984;7.022;2024-01-30T07:00:46;6.43;;;4.80;;
12445;SDS011;6287;50.984;7.022;2024-01-30T07:03:12;7.10;;;5.27;;
12445;SDS011;6287;50.984;7.022;2024-01-30T07:05:37;8.97;;;4.80;;
12445;SDS011;6287;50.984;7.022;2024-01-30T07:08:05;7.83;;;5.43;;
12445;SDS011;6287;50.984;7.022;2024-01-30T07:10:32;6.93;;;5.40;;
12445;SDS011;6287;50.984;7.022;2024-01-30T07:13:00;8.37;;;5.37;;
12445;SDS011;6287;50.984;7.022;2024-01-30T07:15:26;6.07;;;4.97;;
12445;SDS011;6287;50.984;7.022;2024-01-30T07:17:51;9.53;;;4.90;;
12445;SDS011;6287;50.984;7.022;2024-01-30T07:20:17;9.37;;;5.63;;
12445;SDS011;6287;50.984;7.022;2024-01-30T07:22:47;6.07;;;4.83;;
12445;SDS011;6287;50.984;7.022;2024-01-30T07:25:13;5.77;;;4.73;;
12445;SDS011;6287;50.984;7.022;2024-01-30T07:27:38;7.10;;;5.00;;
12445;SDS011;6287;50.984;7.022;2024-01-30T07:30:05;8.00;;;5.33;;
12445;SDS011;6287;50.984;7.022;2024-01-30T07:32:31;7.50;;;5.23;;
12445;SDS011;6287;50.984;7.022;2024-01-30T07:34:57;6.10;;;4.97;;
12445;SDS011;6287;50.984;7.022;2024-01-30T07:37:24;6.20;;;5.60;;
12445;SDS011;6287;50.984;7.022;2024-01-30T07:39:50;7.30;;;5.03;;
12445;SDS011;6287;50.984;7.022;2024-01-30T07:42:16;8.60;;;5.30;;
12445;SDS011;6287;50.984;7.022;2024-01-30T07:44:43;5.30;;;4.40;;
12445;SDS011;6287;50.984;7.022;2024-01-30T07:47:11;6.27;;;4.90;;
12445;SDS011;6287;50.984;7.022;2024-01-30T07:49:37;6.40;;;4.90;;
12445;SDS011;6287;50.984;7.022;2024-01-30T07:52:05;5.93;;;4.93;;
12445;SDS011;6287;50.984;7.022;2024-01-30T07:54:34;7.20;;;5.20;;
12445;SDS011;6287;50.984;7.022;2024-01-30T07:57:07;6.13;;;4.67;;
12445;SDS011;6287;50.984;7.022;2024-01-30T07:59:32;7.60;;;4.73;;
12445;SDS011;6287;50.984;7.022;2024-01-30T08:01:58;8.07;;;5.03;;
12445;SDS011;6287;50.984;7.022;2024-01-30T08:04:23;7.30;;;4.83;;
12445;SDS011;6287;50.984;7.022;2024-01-30T08:06:51;6.87;;;5.40;;
12445;SDS011;6287;50.984;7.022;2024-01-30T08:09:17;7.27;;;4.80;;
12445;SDS011;6287;50.984;7.022;2024-01-30T08:11:43;6.07;;;4.23;;
12445;SDS011;6287;50.984;7.022;2024-01-30T08:14:10;6.10;;;4.77;;
12445;SDS011;6287;50.984;7.022;2024-01-30T08:16:38;8.00;;;4.83;;
12445;SDS011;6287;50.984;7.022;2024-01-30T08:19:04;7.43;;;5.30;;
12445;SDS011;6287;50.984;7.022;2024-01-30T08:21:29;7.93;;;4.87;;
12445;SDS011;6287;50.984;7.022;2024-01-30T08:23:55;6.63;;;5.20;;
12445;SDS011;6287;50.984;7.022;2024-01-30T08:26:21;6.27;;;4.87;;
12445;SDS011;6287;50.984;7.022;2024-01-30T08:28:46;6.47;;;4.70;;
12445;SDS011;6287;50.984;7.022;2024-01-30T08:31:12;7.67;;;5.30;;
12445;SDS011;6287;50.984;7.022;2024-01-30T08:33:40;6.70;;;5.00;;
12445;SDS011;6287;50.984;7.022;2024-01-30T08:36:05;7.17;;;5.17;;
12445;SDS011;6287;50.984;7.022;2024-01-30T08:38:31;8.40;;;5.20;;
12445;SDS011;6287;50.984;7.022;2024-01-30T08:40:57;6.90;;;4.60;;
12445;SDS011;6287;50.984;7.022;2024-01-30T08:43:22;6.67;;;4.70;;
12445;SDS011;6287;50.984;7.022;2024-01-30T08:45:48;6.73;;;5.07;;
12445;SDS011;6287;50.984;7.022;2024-01-30T08:48:16;7.90;;;4.77;;
12445;SDS011;6287;50.984;7.022;2024-01-30T08:50:42;5.63;;;4.67;;
12445;SDS011;6287;50.984;7.022;2024-01-30T08:53:15;10.07;;;5.73;;
12445;SDS011;6287;50.984;7.022;2024-01-30T08:55:40;6.63;;;5.00;;
12445;SDS011;6287;50.984;7.022;2024-01-30T08:58:08;7.90;;;4.70;;
12445;SDS011;6287;50.984;7.022;2024-01-30T09:00:37;6.40;;;5.00;;
12445;SDS011;6287;50.984;7.022;2024-01-30T09:03:05;6.40;;;4.60;;
12445;SDS011;6287;50.984;7.022;2024-01-30T09:05:31;10.30;;;5.50;;
12445;SDS011;6287;50.984;7.022;2024-01-30T09:07:59;6.53;;;4.63;;
12445;SDS011;6287;50.984;7.022;2024-01-30T09:10:27;6.67;;;5.20;;
12445;SDS011;6287;50.984;7.022;2024-01-30T09:12:57;9.27;;;5.37;;
12445;SDS011;6287;50.984;7.022;2024-01-30T09:15:27;9.07;;;5.20;;
12445;SDS011;6287;50.984;7.022;2024-01-30T09:17:52;5.70;;;5.07;;
12445;SDS011;6287;50.984;7.022;2024-01-30T09:20:20;5.83;;;4.30;;
12445;SDS011;6287;50.984;7.022;2024-01-30T09:22:48;5.80;;;4.87;;
12445;SDS011;6287;50.984;7.022;2024-01-30T09:25:16;6.23;;;4.87;;
12445;SDS011;6287;50.984;7.022;2024-01-30T09:27:46;6.10;;;4.60;;
12445;SDS011;6287;50.984;7.022;2024-01-30T09:30:12;6.37;;;4.57;;
12445;SDS011;6287;50.984;7.022;2024-01-30T09:32:39;7.20;;;4.83;;
12445;SDS011;6287;50.984;7.022;2024-01-30T09:35:07;7.20;;;4.33;;
12445;SDS011;6287;50.984;7.022;2024-01-30T09:37:33;7.00;;;4.50;;
12445;SDS011;6287;50.984;7.022;2024-01-30T09:39:58;5.87;;;4.80;;
12445;SDS011;6287;50.984;7.022;2024-01-30T09:45:02;6.17;;;4.77;;
12445;SDS011;6287;50.984;7.022;2024-01-30T09:47:32;7.27;;;4.30;;
12445;SDS011;6287;50.984;7.022;2024-01-30T09:50:06;5.77;;;4.33;;
12445;SDS011;6287;50.984;7.022;2024-01-30T09:52:32;6.13;;;4.50;;
12445;SDS011;6287;50.984;7.022;2024-01-30T09:55:00;6.13;;;4.33;;
12445;SDS011;6287;50.984;7.022;2024-01-30T09:57:28;7.23;;;4.20;;
12445;SDS011;6287;50.984;7.022;2024-01-30T09:59:53;6.60;;;5.10;;
12445;SDS011;6287;50.984;7.022;2024-01-30T10:02:19;6.47;;;4.53;;
12445;SDS011;6287;50.984;7.022;2024-01-30T10:04:48;7.37;;;4.63;;
12445;SDS011;6287;50.984;7.022;2024-01-30T10:07:17;7.90;;;4.67;;
12445;SDS011;6287;50.984;7.022;2024-01-30T10:09:46;5.30;;;4.50;;
12445;SDS011;6287;50.984;7.022;2024-01-30T10:12:15;6.97;;;4.40;;
12445;SDS011;6287;50.984;7.022;2024-01-30T10:14:43;6.83;;;4.17;;
12445;SDS011;6287;50.984;7.022;2024-01-30T10:17:09;5.50;;;4.43;;
12445;SDS011;6287;50.984;7.022;2024-01-30T10:19:36;7.17;;;4.67;;
12445;SDS011;6287;50.984;7.022;2024-01-30T10:22:05;6.97;;;4.73;;
12445;SDS011;6287;50.984;7.022;2024-01-30T10:24:31;7.73;;;4.63;;
12445;SDS011;6287;50.984;7.022;2024-01-30T10:27:00;7.50;;;4.57;;
12445;SDS011;6287;50.984;7.022;2024-01-30T10:29:28;6.40;;;4.77;;
12445;SDS011;6287;50.984;7.022;2024-01-30T10:32:04;9.77;;;5.23;;
12445;SDS011;6287;50.984;7.022;2024-01-30T10:34:30;7.20;;;4.43;;
12445;SDS011;6287;50.984;7.022;2024-01-30T10:36:59;6.40;;;4.30;;
12445;SDS011;6287;50.984;7.022;2024-01-30T10:39:29;6.40;;;4.57;;
12445;SDS011;6287;50.984;7.022;2024-01-30T10:41:59;8.37;;;4.77;;
12445;SDS011;6287;50.984;7.022;2024-01-30T10:44:30;7.00;;;4.97;;
12445;SDS011;6287;50.984;7.022;2024-01-30T10:47:27;6.33;;;4.47;;
12445;SDS011;6287;50.984;7.022;2024-01-30T10:49:56;6.47;;;4.57;;
12445;SDS011;6287;50.984;7.022;2024-01-30T10:52:22;6.80;;;4.83;;
12445;SDS011;6287;50.984;7.022;2024-01-30T10:54:51;5.93;;;4.43;;
12445;SDS011;6287;50.984;7.022;2024-01-30T10:57:17;6.17;;;4.77;;
12445;SDS011;6287;50.984;7.022;2024-01-30T10:59:47;7.57;;;4.93;;
12445;SDS011;6287;50.984;7.022;2024-01-30T11:02:14;6.53;;;4.53;;
12445;SDS011;6287;50.984;7.022;2024-01-30T11:04:41;8.63;;;4.47;;
12445;SDS011;6287;50.984;7.022;2024-01-30T11:07:23;5.17;;;4.50;;
12445;SDS011;6287;50.984;7.022;2024-01-30T11:09:53;8.63;;;4.80;;
12445;SDS011;6287;50.984;7.022;2024-01-30T11:12:27;5.57;;;4.37;;
12445;SDS011;6287;50.984;7.022;2024-01-30T11:15:01;4.83;;;4.13;;
12445;SDS011;6287;50.984;7.022;2024-01-30T11:20:30;6.10;;;4.13;;
12445;SDS011;6287;50.984;7.022;2024-01-30T11:22:56;5.53;;;4.20;;
12445;SDS011;6287;50.984;7.022;2024-01-30T11:25:27;6.43;;;4.70;;
12445;SDS011;6287;50.984;7.022;2024-01-30T11:27:53;7.70;;;4.43;;
12445;SDS011;6287;50.984;7.022;2024-01-30T11:38:04;8.40;;;4.50;;
12445;SDS011;6287;50.984;7.022;2024-01-30T11:40:31;8.07;;;4.70;;
12445;SDS011;6287;50.984;7.022;2024-01-30T11:42:58;5.40;;;4.33;;
12445;SDS011;6287;50.984;7.022;2024-01-30T11:45:29;5.83;;;4.23;;
12445;SDS011;6287;50.984;7.022;2024-01-30T11:47:56;5.90;;;3.97;;
12445;SDS011;6287;50.984;7.022;2024-01-30T11:50:27;5.17;;;3.83;;
12445;SDS011;6287;50.984;7.022;2024-01-30T11:52:55;6.20;;;4.07;;
12445;SDS011;6287;50.984;7.022;2024-01-30T11:55:21;6.30;;;3.97;;
12445;SDS011;6287;50.984;7.022;2024-01-30T11:57:50;6.17;;;4.30;;
12445;SDS011;6287;50.984;7.022;2024-01-30T12:00:22;5.20;;;4.10;;
12445;SDS011;6287;50.984;7.022;2024-01-30T12:02:53;5.77;;;4.37;;
12445;SDS011;6287;50.984;7.022;2024-01-30T12:05:25;7.00;;;3.90;;
12445;SDS011;6287;50.984;7.022;2024-01-30T12:07:54;6.67;;;4.17;;
12445;SDS011;6287;50.984;7.022;2024-01-30T12:10:23;5.90;;;4.20;;
12445;SDS011;6287;50.984;7.022;2024-01-30T12:12:49;5.97;;;4.17;;
12445;SDS011;6287;50.984;7.022;2024-01-30T12:15:16;5.57;;;3.97;;
12445;SDS011;6287;50.984;7.022;2024-01-30T12:17:43;5.93;;;4.20;;
12445;SDS011;6287;50.984;7.022;2024-01-30T12:20:18;6.40;;;4.53;;
12445;SDS011;6287;50.984;7.022;2024-01-30T12:22:47;4.60;;;3.83;;
12445;SDS011;6287;50.984;7.022;2024-01-30T12:25:16;6.13;;;4.43;;
12445;SDS011;6287;50.984;7.022;2024-01-30T12:27:43;7.60;;;4.13;;
12445;SDS011;6287;50.984;7.022;2024-01-30T12:30:12;6.67;;;4.27;;
12445;SDS011;6287;50.984;7.022;2024-01-30T12:32:39;6.23;;;4.20;;
12445;SDS011;6287;50.984;7.022;2024-01-30T12:35:15;5.77;;;4.40;;
12445;SDS011;6287;50.984;7.022;2024-01-30T12:37:47;7.73;;;4.80;;
12445;SDS011;6287;50.984;7.022;2024-01-30T12:40:13;6.27;;;4.17;;
12445;SDS011;6287;50.984;7.022;2024-01-30T12:42:40;6.50;;;4.33;;
12445;SDS011;6287;50.984;7.022;2024-01-30T12:45:11;6.07;;;4.47;;
12445;SDS011;6287;50.984;7.022;2024-01-30T12:47:41;6.57;;;4.63;;
12445;SDS011;6287;50.984;7.022;2024-01-30T12:50:11;6.43;;;4.37;;
12445;SDS011;6287;50.984;7.022;2024-01-30T12:52:40;6.13;;;4.43;;
12445;SDS011;6287;50.984;7.022;2024-01-30T12:55:09;5.37;;;4.30;;
12445;SDS011;6287;50.984;7.022;2024-01-30T12:57:34;5.00;;;4.20;;
12445;SDS011;6287;50.984;7.022;2024-01-30T13:00:00;5.80;;;4.47;;
12445;SDS011;6287;50.984;7.022;2024-01-30T13:02:25;8.20;;;4.47;;
12445;SDS011;6287;50.984;7.022;2024-01-30T13:04:55;6.53;;;4.80;;
12445;SDS011;6287;50.984;7.022;2024-01-30T13:07:23;10.53;;;4.60;;
12445;SDS011;6287;50.984;7.022;2024-01-30T13:09:48;7.93;;;5.17;;
12445;SDS011;6287;50.984;7.022;2024-01-30T13:12:14;7.97;;;4.73;;
12445;SDS011;6287;50.984;7.022;2024-01-30T13:14:40;5.57;;;4.97;;
12445;SDS011;6287;50.984;7.022;2024-01-30T13:17:08;5.70;;;5.13;;
12445;SDS011;6287;50.984;7.022;2024-01-30T13:19:33;7.77;;;4.87;;
12445;SDS011;6287;50.984;7.022;2024-01-30T13:22:01;8.20;;;4.57;;
12445;SDS011;6287;50.984;7.022;2024-01-30T13:24:29;6.57;;;4.50;;
12445;SDS011;6287;50.984;7.022;2024-01-30T13:26:55;7.20;;;4.83;;
12445;SDS011;6287;50.984;7.022;2024-01-30T13:29:21;7.17;;;5.10;;
12445;SDS011;6287;50.984;7.022;2024-01-30T13:31:48;9.07;;;5.17;;
12445;SDS011;6287;50.984;7.022;2024-01-30T13:34:14;6.50;;;4.37;;
12445;SDS011;6287;50.984;7.022;2024-01-30T13:36:42;6.43;;;4.70;;
12445;SDS011;6287;50.984;7.022;2024-01-30T13:39:08;5.53;;;4.70;;
12445;SDS011;6287;50.984;7.022;2024-01-30T13:41:37;7.80;;;4.77;;
12445;SDS011;6287;50.984;7.022;2024-01-30T13:44:06;6.63;;;4.53;;
12445;SDS011;6287;50.984;7.022;2024-01-30T13:46:31;7.97;;;4.63;;
12445;SDS011;6287;50.984;7.022;2024-01-30T13:48:57;7.13;;;4.17;;
12445;SDS011;6287;50.984;7.022;2024-01-30T13:51:23;9.60;;;4.77;;
12445;SDS011;6287;50.984;7.022;2024-01-30T13:53:49;5.30;;;3.73;;
12445;SDS011;6287;50.984;7.022;2024-01-30T13:56:16;8.90;;;4.30;;
12445;SDS011;6287;50.984;7.022;2024-01-30T13:58:42;10.03;;;4.13;;
12445;SDS011;6287;50.984;7.022;2024-01-30T14:01:10;4.63;;;3.33;;
12445;SDS011;6287;50.984;7.022;2024-01-30T14:03:38;6.07;;;3.57;;
12445;SDS011;6287;50.984;7.022;2024-01-30T14:06:06;4.60;;;3.43;;
12445;SDS011;6287;50.984;7.022;2024-01-30T14:08:35;7.67;;;3.87;;
12445;SDS011;6287;50.984;7.022;2024-01-30T14:11:00;7.37;;;3.30;;
12445;SDS011;6287;50.984;7.022;2024-01-30T14:13:28;7.17;;;3.80;;
12445;SDS011;6287;50.984;7.022;2024-01-30T14:15:54;6.33;;;4.07;;
12445;SDS011;6287;50.984;7.022;2024-01-30T14:18:22;5.20;;;4.10;;
12445;SDS011;6287;50.984;7.022;2024-01-30T14:20:53;4.67;;;3.80;;
12445;SDS011;6287;50.984;7.022;2024-01-30T14:23:21;7.37;;;3.97;;
12445;SDS011;6287;50.984;7.022;2024-01-30T14:25:52;6.90;;;4.40;;
12445;SDS011;6287;50.984;7.022;2024-01-30T14:28:20;6.33;;;4.00;;
12445;SDS011;6287;50.984;7.022;2024-01-30T14:30:48;6.77;;;3.80;;
12445;SDS011;6287;50.984;7.022;2024-01-30T14:33:16;6.07;;;4.00;;
12445;SDS011;6287;50.984;7.022;2024-01-30T14:35:44;7.60;;;4.03;;
12445;SDS011;6287;50.984;7.022;2024-01-30T14:38:11;6.43;;;3.70;;
12445;SDS011;6287;50.984;7.022;2024-01-30T14:40:38;9.60;;;4.27;;
12445;SDS011;6287;50.984;7.022;2024-01-30T14:43:04;5.30;;;3.77;;
12445;SDS011;6287;50.984;7.022;2024-01-30T14:45:29;7.93;;;4.20;;
12445;SDS011;6287;50.984;7.022;2024-01-30T14:47:58;4.90;;;4.10;;
12445;SDS011;6287;50.984;7.022;2024-01-30T14:50:27;8.80;;;3.87;;
12445;SDS011;6287;50.984;7.022;2024-01-30T14:52:53;4.27;;;3.70;;
12445;SDS011;6287;50.984;7.022;2024-01-30T14:55:19;4.83;;;3.60;;
12445;SDS011;6287;50.984;7.022;2024-01-30T14:57:47;8.70;;;3.93;;
12445;SDS011;6287;50.984;7.022;2024-01-30T15:00:14;5.47;;;3.60;;
12445;SDS011;6287;50.984;7.022;2024-01-30T15:02:43;7.60;;;3.70;;
12445;SDS011;6287;50.984;7.022;2024-01-30T15:05:11;6.80;;;3.93;;
12445;SDS011;6287;50.984;7.022;2024-01-30T15:07:42;5.37;;;3.00;;
12445;SDS011;6287;50.984;7.022;2024-01-30T15:10:08;6.63;;;3.63;;
12445;SDS011;6287;50.984;7.022;2024-01-30T15:12:36;5.77;;;3.97;;
12445;SDS011;6287;50.984;7.022;2024-01-30T15:15:06;8.30;;;3.83;;